sensor_id;sensor_type;location;lat;lon;timestamp;P1;durP1;ratioP1;P2;durP2;ratioP2
2720;SDS011;1368;49.484;11.112;2022-08-14T00:01:48;14.57;;;13.03;;
2720;SDS011;1368;49.484;11.112;2022-08-14T00:04:14;14.37;;;13.07;;
2720;SDS011;1368;49.484;11.112;2022-08-14T00:06:39;13.47;;;11.97;;
2720;SDS011;1368;49.484;11.112;2022-08-14T00:09:05;14.57;;;13.07;;
2720;SDS011;1368;49.484;11.112;2022-08-14T00:11:31;14.70;;;13.13;;
2720;SDS011;1368;49.484;11.112;2022-08-14T00:13:56;14.30;;;12.80;;
2720;SDS011;1368;49.484;11.112;2022-08-14T00:16:23;14.60;;;13.07;;
2720;SDS011;1368;49.484;11.112;2022-08-14T00:18:49;16.53;;;13.40;;
2720;SDS011;1368;49.484;11.112;2022-08-14T00:21:14;15.87;;;13.57;;
2720;SDS011;1368;49.484;11.112;2022-08-14T00:23:40;15.30;;;13.70;;
2720;SDS011;1368;49.484;11.112;2022-08-14T00:26:07;15.63;;;13.90;;
2720;SDS011;1368;49.484;11.112;2022-08-14T00:28:33;14.73;;;13.13;;
2720;SDS011;1368;49.484;11.112;2022-08-14T00:30:59;14.63;;;13.13;;
2720;SDS011;1368;49.484;11.112;2022-08-14T00:33:25;14.63;;;13.13;;
2720;SDS011;1368;49.484;11.112;2022-08-14T00:35:52;15.63;;;14.03;;
2720;SDS011;1368;49.484;11.112;2022-08-14T00:38:18;15.90;;;14.30;;
2720;SDS011;1368;49.484;11.112;2022-08-14T00:40:44;16.00;;;14.13;;
2720;SDS011;1368;49.484;11.112;2022-08-14T00:43:10;16.07;;;13.10;;
2720;SDS011;1368;49.484;11.112;2022-08-14T00:45:36;15.00;;;13.50;;
2720;SDS011;1368;49.484;11.112;2022-08-14T00:48:02;19.27;;;14.80;;
2720;SDS011;1368;49.484;11.112;2022-08-14T00:50:28;16.23;;;14.53;;
2720;SDS011;1368;49.484;11.112;2022-08-14T00:52:55;16.97;;;15.17;;
2720;SDS011;1368;49.484;11.112;2022-08-14T00:55:21;16.10;;;14.50;;
2720;SDS011;1368;49.484;11.112;2022-08-14T00:57:47;16.80;;;15.27;;
2720;SDS011;1368;49.484;11.112;2022-08-14T01:00:36;19.33;;;16.23;;
2720;SDS011;1368;49.484;11.112;2022-08-14T01:03:04;18.60;;;16.53;;
2720;SDS011;1368;49.484;11.112;2022-08-14T01:05:30;16.73;;;15.00;;
2720;SDS011;1368;49.484;11.112;2022-08-14T01:07:58;18.07;;;16.17;;
2720;SDS011;1368;49.484;11.112;2022-08-14T01:10:25;18.60;;;16.80;;
2720;SDS011;1368;49.484;11.112;2022-08-14T01:13:12;18.63;;;16.83;;
2720;SDS011;1368;49.484;11.112;2022-08-14T01:15:52;18.17;;;16.40;;
2720;SDS011;1368;49.484;11.112;2022-08-14T01:18:20;17.60;;;15.90;;
2720;SDS011;1368;49.484;11.112;2022-08-14T01:21:05;18.63;;;16.63;;
2720;SDS011;1368;49.484;11.112;2022-08-14T01:23:34;17.27;;;15.57;;
2720;SDS011;1368;49.484;11.112;2022-08-14T01:26:01;17.20;;;15.37;;
2720;SDS011;1368;49.484;11.112;2022-08-14T01:28:28;17.87;;;16.17;;
2720;SDS011;1368;49.484;11.112;2022-08-14T01:31:00;17.60;;;15.70;;
2720;SDS011;1368;49.484;11.112;2022-08-14T01:33:27;19.20;;;17.30;;
2720;SDS011;1368;49.484;11.112;2022-08-14T01:35:57;18.43;;;16.60;;
2720;SDS011;1368;49.484;11.112;2022-08-14T01:38:26;18.53;;;16.77;;
2720;SDS011;1368;49.484;11.112;2022-08-14T01:41:02;20.40;;;16.60;;
2720;SDS011;1368;49.484;11.112;2022-08-14T01:43:31;19.27;;;16.90;;
2720;SDS011;1368;49.484;11.112;2022-08-14T01:46:02;18.13;;;16.43;;
2720;SDS011;1368;49.484;11.112;2022-08-14T01:48:30;23.80;;;17.77;;
2720;SDS011;1368;49.484;11.112;2022-08-14T01:50:57;18.93;;;17.00;;
2720;SDS011;1368;49.484;11.112;2022-08-14T01:53:25;18.83;;;17.00;;
2720;SDS011;1368;49.484;11.112;2022-08-14T01:55:52;18.83;;;16.80;;
2720;SDS011;1368;49.484;11.112;2022-08-14T01:58:22;19.83;;;17.77;;
2720;SDS011;1368;49.484;11.112;2022-08-14T02:00:53;19.80;;;17.80;;
2720;SDS011;1368;49.484;11.112;2022-08-14T02:03:20;20.03;;;18.03;;
2720;SDS011;1368;49.484;11.112;2022-08-14T02:05:47;20.50;;;18.10;;
2720;SDS011;1368;49.484;11.112;2022-08-14T02:08:13;20.10;;;18.00;;
2720;SDS011;1368;49.484;11.112;2022-08-14T02:10:40;20.23;;;18.33;;
2720;SDS011;1368;49.484;11.112;2022-08-14T02:13:06;20.43;;;18.23;;
2720;SDS011;1368;49.484;11.112;2022-08-14T02:15:32;18.83;;;16.97;;
2720;SDS011;1368;49.484;11.112;2022-08-14T02:17:58;20.77;;;18.63;;
2720;SDS011;1368;49.484;11.112;2022-08-14T02:20:27;20.83;;;18.70;;
2720;SDS011;1368;49.484;11.112;2022-08-14T02:22:57;20.17;;;18.07;;
2720;SDS011;1368;49.484;11.112;2022-08-14T02:25:24;19.07;;;17.27;;
2720;SDS011;1368;49.484;11.112;2022-08-14T02:27:50;20.00;;;18.07;;
2720;SDS011;1368;49.484;11.112;2022-08-14T02:30:16;19.53;;;17.47;;
2720;SDS011;1368;49.484;11.112;2022-08-14T02:32:42;20.73;;;18.73;;
2720;SDS011;1368;49.484;11.112;2022-08-14T02:35:09;20.63;;;18.63;;
2720;SDS011;1368;49.484;11.112;2022-08-14T02:37:42;20.93;;;18.90;;
2720;SDS011;1368;49.484;11.112;2022-08-14T02:40:12;22.00;;;19.80;;
2720;SDS011;1368;49.484;11.112;2022-08-14T02:42:39;21.57;;;19.27;;
2720;SDS011;1368;49.484;11.112;2022-08-14T02:45:06;20.47;;;18.47;;
2720;SDS011;1368;49.484;11.112;2022-08-14T02:47:33;20.60;;;18.40;;
2720;SDS011;1368;49.484;11.112;2022-08-14T02:49:59;23.07;;;19.70;;
2720;SDS011;1368;49.484;11.112;2022-08-14T02:52:25;21.20;;;19.03;;
2720;SDS011;1368;49.484;11.112;2022-08-14T02:54:51;22.10;;;19.80;;
2720;SDS011;1368;49.484;11.112;2022-08-14T02:57:18;22.57;;;20.33;;
2720;SDS011;1368;49.484;11.112;2022-08-14T02:59:45;20.50;;;18.40;;
2720;SDS011;1368;49.484;11.112;2022-08-14T03:02:13;21.13;;;19.00;;
2720;SDS011;1368;49.484;11.112;2022-08-14T03:04:40;20.47;;;18.33;;
2720;SDS011;1368;49.484;11.112;2022-08-14T03:07:06;22.10;;;19.80;;
2720;SDS011;1368;49.484;11.112;2022-08-14T03:09:34;21.20;;;18.70;;
2720;SDS011;1368;49.484;11.112;2022-08-14T03:12:01;21.33;;;19.13;;
2720;SDS011;1368;49.484;11.112;2022-08-14T03:14:27;21.80;;;19.53;;
2720;SDS011;1368;49.484;11.112;2022-08-14T03:16:53;23.30;;;20.83;;
2720;SDS011;1368;49.484;11.112;2022-08-14T03:19:19;20.50;;;18.50;;
2720;SDS011;1368;49.484;11.112;2022-08-14T03:21:45;23.00;;;19.90;;
2720;SDS011;1368;49.484;11.112;2022-08-14T03:24:11;21.37;;;19.10;;
2720;SDS011;1368;49.484;11.112;2022-08-14T03:26:37;21.33;;;19.20;;
2720;SDS011;1368;49.484;11.112;2022-08-14T03:29:04;21.10;;;18.80;;
2720;SDS011;1368;49.484;11.112;2022-08-14T03:31:30;21.20;;;18.87;;
2720;SDS011;1368;49.484;11.112;2022-08-14T03:33:57;22.70;;;19.97;;
2720;SDS011;1368;49.484;11.112;2022-08-14T03:36:23;21.40;;;19.20;;
2720;SDS011;1368;49.484;11.112;2022-08-14T03:38:50;21.33;;;19.03;;
2720;SDS011;1368;49.484;11.112;2022-08-14T03:41:21;21.13;;;19.03;;
2720;SDS011;1368;49.484;11.112;2022-08-14T03:43:58;23.10;;;20.70;;
2720;SDS011;1368;49.484;11.112;2022-08-14T03:46:27;24.90;;;22.30;;
2720;SDS011;1368;49.484;11.112;2022-08-14T03:48:54;24.13;;;21.20;;
2720;SDS011;1368;49.484;11.112;2022-08-14T03:51:20;21.80;;;19.43;;
2720;SDS011;1368;49.484;11.112;2022-08-14T03:53:50;24.13;;;20.20;;
2720;SDS011;1368;49.484;11.112;2022-08-14T03:56:16;23.33;;;20.83;;
2720;SDS011;1368;49.484;11.112;2022-08-14T03:58:43;21.63;;;19.53;;
2720;SDS011;1368;49.484;11.112;2022-08-14T04:01:11;25.23;;;21.63;;
2720;SDS011;1368;49.484;11.112;2022-08-14T04:03:38;22.47;;;20.17;;
2720;SDS011;1368;49.484;11.112;2022-08-14T04:06:04;22.17;;;20.07;;
2720;SDS011;1368;49.484;11.112;2022-08-14T04:08:35;24.83;;;20.80;;
2720;SDS011;1368;49.484;11.112;2022-08-14T04:11:02;22.10;;;19.90;;
2720;SDS011;1368;49.484;11.112;2022-08-14T04:13:30;23.87;;;21.47;;
2720;SDS011;1368;49.484;11.112;2022-08-14T04:15:57;22.00;;;19.60;;
2720;SDS011;1368;49.484;11.112;2022-08-14T04:18:24;21.80;;;19.50;;
2720;SDS011;1368;49.484;11.112;2022-08-14T04:20:50;23.10;;;20.73;;
2720;SDS011;1368;49.484;11.112;2022-08-14T04:23:15;21.07;;;18.80;;
2720;SDS011;1368;49.484;11.112;2022-08-14T04:25:41;23.50;;;19.80;;
2720;SDS011;1368;49.484;11.112;2022-08-14T04:28:08;21.80;;;19.47;;
2720;SDS011;1368;49.484;11.112;2022-08-14T04:30:35;21.13;;;18.83;;
2720;SDS011;1368;49.484;11.112;2022-08-14T04:33:05;20.13;;;18.17;;
2720;SDS011;1368;49.484;11.112;2022-08-14T04:35:32;21.30;;;19.10;;
2720;SDS011;1368;49.484;11.112;2022-08-14T04:38:07;21.77;;;19.43;;
2720;SDS011;1368;49.484;11.112;2022-08-14T04:40:52;22.60;;;19.00;;
2720;SDS011;1368;49.484;11.112;2022-08-14T04:43:36;21.40;;;19.10;;
2720;SDS011;1368;49.484;11.112;2022-08-14T04:46:08;20.77;;;18.67;;
2720;SDS011;1368;49.484;11.112;2022-08-14T04:48:39;20.87;;;17.60;;
2720;SDS011;1368;49.484;11.112;2022-08-14T04:51:06;21.63;;;19.40;;
2720;SDS011;1368;49.484;11.112;2022-08-14T04:53:36;20.77;;;18.67;;
2720;SDS011;1368;49.484;11.112;2022-08-14T04:56:06;19.47;;;17.57;;
2720;SDS011;1368;49.484;11.112;2022-08-14T04:58:32;19.47;;;17.37;;
2720;SDS011;1368;49.484;11.112;2022-08-14T05:00:59;18.00;;;16.13;;
2720;SDS011;1368;49.484;11.112;2022-08-14T05:03:28;17.70;;;15.90;;
2720;SDS011;1368;49.484;11.112;2022-08-14T05:05:57;15.93;;;14.33;;
2720;SDS011;1368;49.484;11.112;2022-08-14T05:08:25;15.70;;;14.17;;
2720;SDS011;1368;49.484;11.112;2022-08-14T05:10:52;18.10;;;15.63;;
2720;SDS011;1368;49.484;11.112;2022-08-14T05:13:20;15.80;;;14.30;;
2720;SDS011;1368;49.484;11.112;2022-08-14T05:15:50;16.40;;;14.80;;
2720;SDS011;1368;49.484;11.112;2022-08-14T05:18:19;15.83;;;14.23;;
2720;SDS011;1368;49.484;11.112;2022-08-14T05:20:47;16.37;;;14.73;;
2720;SDS011;1368;49.484;11.112;2022-08-14T05:23:16;17.80;;;14.43;;
2720;SDS011;1368;49.484;11.112;2022-08-14T05:25:43;14.90;;;13.50;;
2720;SDS011;1368;49.484;11.112;2022-08-14T05:30:53;14.47;;;12.97;;
2720;SDS011;1368;49.484;11.112;2022-08-14T05:33:25;17.40;;;13.83;;
2720;SDS011;1368;49.484;11.112;2022-08-14T05:35:52;14.77;;;13.37;;
2720;SDS011;1368;49.484;11.112;2022-08-14T05:38:25;14.37;;;13.07;;
2720;SDS011;1368;49.484;11.112;2022-08-14T05:41:02;13.03;;;11.83;;
2720;SDS011;1368;49.484;11.112;2022-08-14T05:43:30;13.60;;;12.37;;
2720;SDS011;1368;49.484;11.112;2022-08-14T05:45:56;13.17;;;11.97;;
2720;SDS011;1368;49.484;11.112;2022-08-14T05:48:23;12.97;;;11.77;;
2720;SDS011;1368;49.484;11.112;2022-08-14T05:50:52;13.17;;;12.07;;
2720;SDS011;1368;49.484;11.112;2022-08-14T05:53:19;14.40;;;13.10;;
2720;SDS011;1368;49.484;11.112;2022-08-14T05:55:46;14.93;;;12.70;;
2720;SDS011;1368;49.484;11.112;2022-08-14T05:58:12;14.80;;;13.40;;
2720;SDS011;1368;49.484;11.112;2022-08-14T06:00:40;13.23;;;12.03;;
2720;SDS011;1368;49.484;11.112;2022-08-14T06:03:09;13.43;;;12.23;;
2720;SDS011;1368;49.484;11.112;2022-08-14T06:05:39;14.13;;;12.77;;
2720;SDS011;1368;49.484;11.112;2022-08-14T06:08:05;13.30;;;12.00;;
2720;SDS011;1368;49.484;11.112;2022-08-14T06:10:39;13.00;;;11.70;;
2720;SDS011;1368;49.484;11.112;2022-08-14T06:13:05;13.13;;;11.93;;
2720;SDS011;1368;49.484;11.112;2022-08-14T06:15:30;11.93;;;10.83;;
2720;SDS011;1368;49.484;11.112;2022-08-14T06:17:56;13.03;;;11.73;;
2720;SDS011;1368;49.484;11.112;2022-08-14T06:20:23;11.83;;;10.83;;
2720;SDS011;1368;49.484;11.112;2022-08-14T06:22:49;11.47;;;10.47;;
2720;SDS011;1368;49.484;11.112;2022-08-14T06:25:15;11.17;;;10.10;;
2720;SDS011;1368;49.484;11.112;2022-08-14T06:27:42;11.33;;;10.33;;
2720;SDS011;1368;49.484;11.112;2022-08-14T06:30:10;15.23;;;11.50;;
2720;SDS011;1368;49.484;11.112;2022-08-14T06:32:38;11.57;;;10.47;;
2720;SDS011;1368;49.484;11.112;2022-08-14T06:35:04;11.80;;;10.80;;
2720;SDS011;1368;49.484;11.112;2022-08-14T06:37:53;12.00;;;10.90;;
2720;SDS011;1368;49.484;11.112;2022-08-14T06:42:49;12.03;;;10.57;;
2720;SDS011;1368;49.484;11.112;2022-08-14T06:45:15;10.40;;;9.47;;
2720;SDS011;1368;49.484;11.112;2022-08-14T06:47:44;10.73;;;9.73;;
2720;SDS011;1368;49.484;11.112;2022-08-14T06:50:12;12.57;;;11.30;;
2720;SDS011;1368;49.484;11.112;2022-08-14T06:52:39;10.80;;;9.80;;
2720;SDS011;1368;49.484;11.112;2022-08-14T06:55:06;11.20;;;10.20;;
2720;SDS011;1368;49.484;11.112;2022-08-14T06:57:44;10.93;;;9.93;;
2720;SDS011;1368;49.484;11.112;2022-08-14T07:00:12;9.77;;;8.83;;
2720;SDS011;1368;49.484;11.112;2022-08-14T07:02:41;10.70;;;9.70;;
2720;SDS011;1368;49.484;11.112;2022-08-14T07:05:25;10.13;;;9.33;;
2720;SDS011;1368;49.484;11.112;2022-08-14T07:08:10;9.50;;;8.70;;
2720;SDS011;1368;49.484;11.112;2022-08-14T07:10:38;9.93;;;9.00;;
2720;SDS011;1368;49.484;11.112;2022-08-14T07:13:04;9.90;;;8.90;;
2720;SDS011;1368;49.484;11.112;2022-08-14T07:15:30;9.20;;;8.30;;
2720;SDS011;1368;49.484;11.112;2022-08-14T07:17:57;9.30;;;8.50;;
2720;SDS011;1368;49.484;11.112;2022-08-14T07:20:22;9.53;;;8.63;;
2720;SDS011;1368;49.484;11.112;2022-08-14T07:22:48;8.60;;;7.90;;
2720;SDS011;1368;49.484;11.112;2022-08-14T07:25:14;9.90;;;7.97;;
2720;SDS011;1368;49.484;11.112;2022-08-14T07:27:40;9.60;;;8.67;;
2720;SDS011;1368;49.484;11.112;2022-08-14T07:30:06;9.37;;;8.47;;
2720;SDS011;1368;49.484;11.112;2022-08-14T07:32:33;9.07;;;8.17;;
2720;SDS011;1368;49.484;11.112;2022-08-14T07:34:59;8.10;;;7.40;;
2720;SDS011;1368;49.484;11.112;2022-08-14T07:37:24;8.80;;;8.00;;
2720;SDS011;1368;49.484;11.112;2022-08-14T07:39:50;8.30;;;7.60;;
2720;SDS011;1368;49.484;11.112;2022-08-14T07:42:15;8.40;;;7.70;;
2720;SDS011;1368;49.484;11.112;2022-08-14T07:44:41;9.20;;;8.30;;
2720;SDS011;1368;49.484;11.112;2022-08-14T07:47:07;7.37;;;6.77;;
2720;SDS011;1368;49.484;11.112;2022-08-14T07:49:32;8.20;;;7.50;;
2720;SDS011;1368;49.484;11.112;2022-08-14T07:52:00;8.80;;;8.10;;
2720;SDS011;1368;49.484;11.112;2022-08-14T07:54:26;8.87;;;7.97;;
2720;SDS011;1368;49.484;11.112;2022-08-14T07:56:52;8.67;;;7.87;;
2720;SDS011;1368;49.484;11.112;2022-08-14T07:59:17;8.13;;;7.43;;
2720;SDS011;1368;49.484;11.112;2022-08-14T08:01:45;8.03;;;7.30;;
2720;SDS011;1368;49.484;11.112;2022-08-14T08:04:11;8.80;;;8.10;;
2720;SDS011;1368;49.484;11.112;2022-08-14T08:06:39;9.37;;;8.37;;
2720;SDS011;1368;49.484;11.112;2022-08-14T08:09:04;8.27;;;7.50;;
2720;SDS011;1368;49.484;11.112;2022-08-14T08:11:33;8.50;;;7.60;;
2720;SDS011;1368;49.484;11.112;2022-08-14T08:14:00;8.33;;;7.53;;
2720;SDS011;1368;49.484;11.112;2022-08-14T08:16:30;7.40;;;6.70;;
2720;SDS011;1368;49.484;11.112;2022-08-14T08:18:57;8.00;;;7.30;;
2720;SDS011;1368;49.484;11.112;2022-08-14T08:21:23;7.93;;;7.20;;
2720;SDS011;1368;49.484;11.112;2022-08-14T08:23:50;7.80;;;7.10;;
2720;SDS011;1368;49.484;11.112;2022-08-14T08:26:16;6.80;;;6.20;;
2720;SDS011;1368;49.484;11.112;2022-08-14T08:28:42;7.23;;;6.63;;
2720;SDS011;1368;49.484;11.112;2022-08-14T08:31:08;6.47;;;5.87;;
2720;SDS011;1368;49.484;11.112;2022-08-14T08:33:36;6.03;;;5.50;;
2720;SDS011;1368;49.484;11.112;2022-08-14T08:36:04;6.60;;;5.03;;
2720;SDS011;1368;49.484;11.112;2022-08-14T08:38:32;6.10;;;5.50;;
2720;SDS011;1368;49.484;11.112;2022-08-14T08:40:58;7.23;;;6.53;;
2720;SDS011;1368;49.484;11.112;2022-08-14T08:43:28;6.30;;;5.70;;
2720;SDS011;1368;49.484;11.112;2022-08-14T08:45:56;6.17;;;5.47;;
2720;SDS011;1368;49.484;11.112;2022-08-14T08:48:27;6.53;;;5.60;;
2720;SDS011;1368;49.484;11.112;2022-08-14T08:50:58;7.70;;;6.20;;
2720;SDS011;1368;49.484;11.112;2022-08-14T08:53:29;6.00;;;5.50;;
2720;SDS011;1368;49.484;11.112;2022-08-14T08:55:56;6.43;;;5.93;;
2720;SDS011;1368;49.484;11.112;2022-08-14T08:58:22;7.50;;;5.60;;
2720;SDS011;1368;49.484;11.112;2022-08-14T09:00:50;7.27;;;5.90;;
2720;SDS011;1368;49.484;11.112;2022-08-14T09:03:24;7.17;;;6.53;;
2720;SDS011;1368;49.484;11.112;2022-08-14T09:05:58;7.30;;;6.70;;
2720;SDS011;1368;49.484;11.112;2022-08-14T09:08:28;7.13;;;6.53;;
2720;SDS011;1368;49.484;11.112;2022-08-14T09:10:58;9.97;;;6.20;;
2720;SDS011;1368;49.484;11.112;2022-08-14T09:13:30;10.80;;;7.00;;
2720;SDS011;1368;49.484;11.112;2022-08-14T09:15:56;7.00;;;6.13;;
2720;SDS011;1368;49.484;11.112;2022-08-14T09:18:23;7.17;;;6.57;;
2720;SDS011;1368;49.484;11.112;2022-08-14T09:20:53;8.27;;;7.57;;
2720;SDS011;1368;49.484;11.112;2022-08-14T09:23:19;7.80;;;7.20;;
2720;SDS011;1368;49.484;11.112;2022-08-14T09:25:46;8.37;;;6.67;;
2720;SDS011;1368;49.484;11.112;2022-08-14T09:28:14;8.17;;;7.47;;
2720;SDS011;1368;49.484;11.112;2022-08-14T09:30:43;8.13;;;7.43;;
2720;SDS011;1368;49.484;11.112;2022-08-14T09:33:21;7.70;;;7.00;;
2720;SDS011;1368;49.484;11.112;2022-08-14T09:36:05;7.70;;;7.00;;
2720;SDS011;1368;49.484;11.112;2022-08-14T09:38:56;9.60;;;7.70;;
2720;SDS011;1368;49.484;11.112;2022-08-14T09:44:27;8.27;;;7.57;;
2720;SDS011;1368;49.484;11.112;2022-08-14T09:46:54;6.57;;;5.97;;
2720;SDS011;1368;49.484;11.112;2022-08-14T09:52:06;7.50;;;6.80;;
2720;SDS011;1368;49.484;11.112;2022-08-14T09:54:41;7.60;;;6.93;;
2720;SDS011;1368;49.484;11.112;2022-08-14T09:57:09;7.17;;;6.47;;
2720;SDS011;1368;49.484;11.112;2022-08-14T09:59:46;8.47;;;7.67;;
2720;SDS011;1368;49.484;11.112;2022-08-14T10:02:20;8.00;;;7.20;;
2720;SDS011;1368;49.484;11.112;2022-08-14T10:05:02;8.40;;;7.67;;
2720;SDS011;1368;49.484;11.112;2022-08-14T10:07:33;8.50;;;7.70;;
2720;SDS011;1368;49.484;11.112;2022-08-14T10:10:00;8.60;;;7.80;;
2720;SDS011;1368;49.484;11.112;2022-08-14T10:12:43;8.07;;;7.27;;
2720;SDS011;1368;49.484;11.112;2022-08-14T10:15:16;8.40;;;7.60;;
2720;SDS011;1368;49.484;11.112;2022-08-14T10:17:47;7.93;;;7.20;;
2720;SDS011;1368;49.484;11.112;2022-08-14T10:20:13;8.10;;;7.40;;
2720;SDS011;1368;49.484;11.112;2022-08-14T10:22:41;7.60;;;6.90;;
2720;SDS011;1368;49.484;11.112;2022-08-14T10:25:13;7.70;;;7.00;;
2720;SDS011;1368;49.484;11.112;2022-08-14T10:27:41;10.23;;;8.70;;
2720;SDS011;1368;49.484;11.112;2022-08-14T10:30:14;9.00;;;7.97;;
2720;SDS011;1368;49.484;11.112;2022-08-14T10:32:42;8.73;;;7.90;;
2720;SDS011;1368;49.484;11.112;2022-08-14T10:35:09;8.30;;;7.37;;
2720;SDS011;1368;49.484;11.112;2022-08-14T10:37:37;7.87;;;7.10;;
2720;SDS011;1368;49.484;11.112;2022-08-14T10:40:05;8.00;;;6.97;;
2720;SDS011;1368;49.484;11.112;2022-08-14T10:42:38;9.20;;;7.10;;
2720;SDS011;1368;49.484;11.112;2022-08-14T10:45:15;8.00;;;6.63;;
2720;SDS011;1368;49.484;11.112;2022-08-14T10:47:45;6.40;;;5.80;;
2720;SDS011;1368;49.484;11.112;2022-08-14T10:50:13;7.87;;;6.43;;
2720;SDS011;1368;49.484;11.112;2022-08-14T10:52:40;7.53;;;6.13;;
2720;SDS011;1368;49.484;11.112;2022-08-14T10:55:10;6.33;;;5.73;;
2720;SDS011;1368;49.484;11.112;2022-08-14T10:57:48;9.00;;;6.87;;
2720;SDS011;1368;49.484;11.112;2022-08-14T11:00:16;7.33;;;6.63;;
2720;SDS011;1368;49.484;11.112;2022-08-14T11:03:00;10.10;;;6.23;;
2720;SDS011;1368;49.484;11.112;2022-08-14T11:05:44;7.60;;;6.73;;
2720;SDS011;1368;49.484;11.112;2022-08-14T11:08:15;8.90;;;7.13;;
2720;SDS011;1368;49.484;11.112;2022-08-14T11:10:44;7.93;;;7.23;;
2720;SDS011;1368;49.484;11.112;2022-08-14T11:13:16;10.50;;;7.87;;
2720;SDS011;1368;49.484;11.112;2022-08-14T11:15:43;7.53;;;6.73;;
2720;SDS011;1368;49.484;11.112;2022-08-14T11:18:10;7.73;;;7.03;;
2720;SDS011;1368;49.484;11.112;2022-08-14T11:20:36;8.40;;;7.60;;
2720;SDS011;1368;49.484;11.112;2022-08-14T11:23:03;8.73;;;7.93;;
2720;SDS011;1368;49.484;11.112;2022-08-14T11:25:31;9.37;;;8.47;;
2720;SDS011;1368;49.484;11.112;2022-08-14T11:27:58;9.43;;;8.10;;
2720;SDS011;1368;49.484;11.112;2022-08-14T11:30:26;9.10;;;8.20;;
2720;SDS011;1368;49.484;11.112;2022-08-14T11:32:53;9.07;;;8.20;;
2720;SDS011;1368;49.484;11.112;2022-08-14T11:35:21;8.97;;;8.10;;
2720;SDS011;1368;49.484;11.112;2022-08-14T11:37:57;8.07;;;7.27;;
2720;SDS011;1368;49.484;11.112;2022-08-14T11:40:26;9.60;;;8.60;;
2720;SDS011;1368;49.484;11.112;2022-08-14T11:42:57;8.10;;;7.23;;
2720;SDS011;1368;49.484;11.112;2022-08-14T11:45:23;8.73;;;7.83;;
2720;SDS011;1368;49.484;11.112;2022-08-14T11:47:51;9.30;;;8.27;;
2720;SDS011;1368;49.484;11.112;2022-08-14T11:50:29;7.80;;;7.10;;
2720;SDS011;1368;49.484;11.112;2022-08-14T11:52:57;8.00;;;6.97;;
2720;SDS011;1368;49.484;11.112;2022-08-14T11:55:26;9.00;;;7.67;;
2720;SDS011;1368;49.484;11.112;2022-08-14T11:58:07;8.47;;;7.57;;
2720;SDS011;1368;49.484;11.112;2022-08-14T12:00:51;8.43;;;7.43;;
2720;SDS011;1368;49.484;11.112;2022-08-14T12:03:18;8.70;;;7.80;;
2720;SDS011;1368;49.484;11.112;2022-08-14T12:05:44;10.40;;;7.57;;
2720;SDS011;1368;49.484;11.112;2022-08-14T12:08:10;6.87;;;6.27;;
2720;SDS011;1368;49.484;11.112;2022-08-14T12:10:37;9.53;;;8.63;;
2720;SDS011;1368;49.484;11.112;2022-08-14T12:13:16;9.57;;;8.23;;
2720;SDS011;1368;49.484;11.112;2022-08-14T12:15:45;7.33;;;6.60;;
2720;SDS011;1368;49.484;11.112;2022-08-14T12:18:33;7.77;;;7.03;;
2720;SDS011;1368;49.484;11.112;2022-08-14T12:21:14;7.80;;;7.00;;
2720;SDS011;1368;49.484;11.112;2022-08-14T12:23:40;7.80;;;7.00;;
2720;SDS011;1368;49.484;11.112;2022-08-14T12:26:08;10.17;;;7.70;;
2720;SDS011;1368;49.484;11.112;2022-08-14T12:28:50;10.33;;;6.53;;
2720;SDS011;1368;49.484;11.112;2022-08-14T12:31:29;7.90;;;6.90;;
2720;SDS011;1368;49.484;11.112;2022-08-14T12:33:58;7.23;;;5.97;;
2720;SDS011;1368;49.484;11.112;2022-08-14T12:36:25;6.73;;;6.03;;
2720;SDS011;1368;49.484;11.112;2022-08-14T12:38:55;7.17;;;6.47;;
2720;SDS011;1368;49.484;11.112;2022-08-14T12:41:23;7.10;;;6.40;;
2720;SDS011;1368;49.484;11.112;2022-08-14T12:43:58;10.10;;;7.50;;
2720;SDS011;1368;49.484;11.112;2022-08-14T12:49:00;8.83;;;7.93;;
2720;SDS011;1368;49.484;11.112;2022-08-14T12:51:32;6.73;;;6.03;;
2720;SDS011;1368;49.484;11.112;2022-08-14T12:53:58;7.30;;;6.20;;
2720;SDS011;1368;49.484;11.112;2022-08-14T12:56:24;7.53;;;6.83;;
2720;SDS011;1368;49.484;11.112;2022-08-14T12:58:52;7.93;;;7.13;;
2720;SDS011;1368;49.484;11.112;2022-08-14T13:01:20;9.43;;;6.20;;
2720;SDS011;1368;49.484;11.112;2022-08-14T13:03:47;8.07;;;6.70;;
2720;SDS011;1368;49.484;11.112;2022-08-14T13:06:14;8.10;;;6.90;;
2720;SDS011;1368;49.484;11.112;2022-08-14T13:08:41;8.00;;;6.57;;
2720;SDS011;1368;49.484;11.112;2022-08-14T13:11:11;7.60;;;6.80;;
2720;SDS011;1368;49.484;11.112;2022-08-14T13:13:40;8.00;;;7.20;;
2720;SDS011;1368;49.484;11.112;2022-08-14T13:16:08;6.80;;;6.10;;
2720;SDS011;1368;49.484;11.112;2022-08-14T13:18:36;7.43;;;6.70;;
2720;SDS011;1368;49.484;11.112;2022-08-14T13:21:05;9.43;;;6.83;;
2720;SDS011;1368;49.484;11.112;2022-08-14T13:23:32;7.03;;;6.30;;
2720;SDS011;1368;49.484;11.112;2022-08-14T13:25:58;7.33;;;6.60;;
2720;SDS011;1368;49.484;11.112;2022-08-14T13:28:25;7.13;;;6.43;;
2720;SDS011;1368;49.484;11.112;2022-08-14T13:30:51;6.97;;;6.27;;
2720;SDS011;1368;49.484;11.112;2022-08-14T13:33:17;8.10;;;6.60;;
2720;SDS011;1368;49.484;11.112;2022-08-14T13:35:47;8.90;;;7.60;;
2720;SDS011;1368;49.484;11.112;2022-08-14T13:38:17;7.13;;;6.50;;
2720;SDS011;1368;49.484;11.112;2022-08-14T13:40:52;7.23;;;6.53;;
2720;SDS011;1368;49.484;11.112;2022-08-14T13:43:20;9.93;;;6.43;;
2720;SDS011;1368;49.484;11.112;2022-08-14T13:45:48;9.33;;;8.10;;
2720;SDS011;1368;49.484;11.112;2022-08-14T13:48:14;8.00;;;7.20;;
2720;SDS011;1368;49.484;11.112;2022-08-14T13:50:40;7.83;;;7.07;;
2720;SDS011;1368;49.484;11.112;2022-08-14T13:53:09;7.73;;;6.60;;
2720;SDS011;1368;49.484;11.112;2022-08-14T13:55:38;7.73;;;7.03;;
2720;SDS011;1368;49.484;11.112;2022-08-14T13:58:05;7.23;;;6.30;;
2720;SDS011;1368;49.484;11.112;2022-08-14T14:00:32;8.07;;;7.37;;
2720;SDS011;1368;49.484;11.112;2022-08-14T14:03:00;7.60;;;6.90;;
2720;SDS011;1368;49.484;11.112;2022-08-14T14:05:27;7.87;;;7.13;;
2720;SDS011;1368;49.484;11.112;2022-08-14T14:07:53;8.80;;;8.00;;
2720;SDS011;1368;49.484;11.112;2022-08-14T14:10:20;9.60;;;7.20;;
2720;SDS011;1368;49.484;11.112;2022-08-14T14:12:49;18.17;;;8.10;;
2720;SDS011;1368;49.484;11.112;2022-08-14T14:15:17;11.00;;;8.47;;
2720;SDS011;1368;49.484;11.112;2022-08-14T14:17:44;9.20;;;7.67;;
2720;SDS011;1368;49.484;11.112;2022-08-14T14:20:12;9.50;;;8.03;;
2720;SDS011;1368;49.484;11.112;2022-08-14T14:22:43;8.40;;;7.30;;
2720;SDS011;1368;49.484;11.112;2022-08-14T14:25:11;8.30;;;7.13;;
2720;SDS011;1368;49.484;11.112;2022-08-14T14:27:39;8.37;;;6.97;;
2720;SDS011;1368;49.484;11.112;2022-08-14T14:30:13;8.80;;;7.20;;
2720;SDS011;1368;49.484;11.112;2022-08-14T14:32:40;8.77;;;7.50;;
2720;SDS011;1368;49.484;11.112;2022-08-14T14:35:12;8.67;;;7.77;;
2720;SDS011;1368;49.484;11.112;2022-08-14T14:37:41;7.40;;;6.63;;
2720;SDS011;1368;49.484;11.112;2022-08-14T14:40:08;8.10;;;6.80;;
2720;SDS011;1368;49.484;11.112;2022-08-14T14:42:45;8.30;;;7.17;;
2720;SDS011;1368;49.484;11.112;2022-08-14T14:45:14;7.47;;;6.77;;
2720;SDS011;1368;49.484;11.112;2022-08-14T14:47:52;8.23;;;7.43;;
2720;SDS011;1368;49.484;11.112;2022-08-14T14:50:19;8.00;;;6.50;;
2720;SDS011;1368;49.484;11.112;2022-08-14T14:52:46;10.90;;;6.77;;
2720;SDS011;1368;49.484;11.112;2022-08-14T14:55:13;8.97;;;8.07;;
2720;SDS011;1368;49.484;11.112;2022-08-14T14:57:40;9.87;;;8.23;;
2720;SDS011;1368;49.484;11.112;2022-08-14T15:00:06;9.33;;;7.23;;
2720;SDS011;1368;49.484;11.112;2022-08-14T15:02:38;7.60;;;6.90;;
2720;SDS011;1368;49.484;11.112;2022-08-14T15:05:08;7.83;;;6.47;;
2720;SDS011;1368;49.484;11.112;2022-08-14T15:07:35;8.40;;;7.50;;
2720;SDS011;1368;49.484;11.112;2022-08-14T15:10:03;10.43;;;8.00;;
2720;SDS011;1368;49.484;11.112;2022-08-14T15:12:30;8.57;;;7.00;;